SLET/SRZ METAR and TAF weather

Enter ICAO airport designator
Station Type Date Time Source
SLET METAR 2019/10/23 17:00 UTC NOAA

SLET 231700Z 07002KT 9999 FEW023 34/14 Q1011


Station Type Date Time Source
SLET Decoded METAR 2019/10/23 17:00 UTC NOAA

Santa Cruz / El Trompillo, Bolivia (SLET) 17-48S 063-11W 414M
Oct 23, 2019 - 01:00 PM EDT / 2019.10.23 1700 UTC
Wind: from the ENE (070 degrees) at 2 MPH (2 KT):0
Visibility: greater than 7 mile(s):0
Sky conditions: mostly clear
Temperature: 93 F (34 C)
Dew Point: 57 F (14 C)
Relative Humidity: 30%
Pressure (altimeter): 29.85 in. Hg (1011 hPa)
ob: SLET 231700Z 07002KT 9999 FEW023 34/14 Q1011
cycle: 17

Station Type Date Time Source
SLET TAF 2019/10/23 18:48 UTC NOAA

TAF SLET 231640Z 2318/2418 VRB05KT 9999 FEW020 TX33/2319Z TN20/2410Z
BECMG 2412/2415 34008KT

Example: see airport list